sensor_id;sensor_type;location;lat;lon;timestamp;P1;durP1;ratioP1;P2;durP2;ratioP2
12222;SDS011;6174;49.058;8.524;2023-06-26T05:01:35;7.33;;;6.73;;
12222;SDS011;6174;49.058;8.524;2023-06-26T05:04:04;7.60;;;6.90;;
12222;SDS011;6174;49.058;8.524;2023-06-26T05:06:31;8.27;;;6.27;;
12222;SDS011;6174;49.058;8.524;2023-06-26T05:08:58;7.60;;;6.87;;
12222;SDS011;6174;49.058;8.524;2023-06-26T05:11:24;7.47;;;6.77;;
12222;SDS011;6174;49.058;8.524;2023-06-26T05:13:51;8.10;;;7.30;;
12222;SDS011;6174;49.058;8.524;2023-06-26T05:16:18;7.37;;;6.63;;
12222;SDS011;6174;49.058;8.524;2023-06-26T05:18:46;7.83;;;7.13;;
12222;SDS011;6174;49.058;8.524;2023-06-26T05:21:13;7.67;;;7.07;;
12222;SDS011;6174;49.058;8.524;2023-06-26T05:23:41;7.03;;;6.43;;
12222;SDS011;6174;49.058;8.524;2023-06-26T05:26:09;7.43;;;6.73;;
12222;SDS011;6174;49.058;8.524;2023-06-26T05:28:38;6.93;;;6.33;;
12222;SDS011;6174;49.058;8.524;2023-06-26T05:31:05;6.93;;;6.37;;
12222;SDS011;6174;49.058;8.524;2023-06-26T05:33:34;6.77;;;6.13;;
12222;SDS011;6174;49.058;8.524;2023-06-26T05:36:03;7.20;;;6.57;;
12222;SDS011;6174;49.058;8.524;2023-06-26T05:38:32;6.93;;;6.33;;
12222;SDS011;6174;49.058;8.524;2023-06-26T05:40:59;7.43;;;6.50;;
12222;SDS011;6174;49.058;8.524;2023-06-26T05:43:27;7.43;;;6.73;;
12222;SDS011;6174;49.058;8.524;2023-06-26T05:45:53;7.70;;;7.00;;
12222;SDS011;6174;49.058;8.524;2023-06-26T05:48:20;9.07;;;6.90;;
12222;SDS011;6174;49.058;8.524;2023-06-26T05:50:47;7.23;;;6.73;;
12222;SDS011;6174;49.058;8.524;2023-06-26T05:53:15;7.90;;;7.20;;
12222;SDS011;6174;49.058;8.524;2023-06-26T05:55:43;7.30;;;6.60;;
12222;SDS011;6174;49.058;8.524;2023-06-26T05:58:10;7.30;;;6.60;;
12222;SDS011;6174;49.058;8.524;2023-06-26T06:00:38;7.40;;;6.70;;
12222;SDS011;6174;49.058;8.524;2023-06-26T06:03:05;7.33;;;6.63;;
12222;SDS011;6174;49.058;8.524;2023-06-26T06:05:31;7.83;;;7.13;;
12222;SDS011;6174;49.058;8.524;2023-06-26T06:07:58;7.57;;;6.97;;
12222;SDS011;6174;49.058;8.524;2023-06-26T06:10:26;7.87;;;7.17;;
12222;SDS011;6174;49.058;8.524;2023-06-26T06:12:53;8.27;;;7.43;;
12222;SDS011;6174;49.058;8.524;2023-06-26T06:15:20;7.50;;;6.73;;
12222;SDS011;6174;49.058;8.524;2023-06-26T06:17:46;7.70;;;7.00;;
12222;SDS011;6174;49.058;8.524;2023-06-26T06:20:13;7.23;;;6.53;;
12222;SDS011;6174;49.058;8.524;2023-06-26T06:22:40;7.53;;;6.68;;
12222;SDS011;6174;49.058;8.524;2023-06-26T06:25:07;7.40;;;6.70;;
12222;SDS011;6174;49.058;8.524;2023-06-26T06:27:35;7.63;;;6.93;;
12222;SDS011;6174;49.058;8.524;2023-06-26T06:30:02;9.03;;;6.70;;
12222;SDS011;6174;49.058;8.524;2023-06-26T06:32:29;8.10;;;7.07;;
12222;SDS011;6174;49.058;8.524;2023-06-26T06:34:56;9.13;;;6.70;;
12222;SDS011;6174;49.058;8.524;2023-06-26T06:37:23;7.00;;;6.40;;
12222;SDS011;6174;49.058;8.524;2023-06-26T06:39:51;6.45;;;5.85;;
12222;SDS011;6174;49.058;8.524;2023-06-26T06:42:18;7.25;;;6.53;;
12222;SDS011;6174;49.058;8.524;2023-06-26T06:44:46;7.32;;;6.50;;
12222;SDS011;6174;49.058;8.524;2023-06-26T06:47:13;6.93;;;6.20;;
12222;SDS011;6174;49.058;8.524;2023-06-26T06:49:39;6.60;;;6.10;;
12222;SDS011;6174;49.058;8.524;2023-06-26T06:52:06;7.18;;;6.50;;
12222;SDS011;6174;49.058;8.524;2023-06-26T06:54:37;6.78;;;6.18;;
12222;SDS011;6174;49.058;8.524;2023-06-26T06:57:18;6.78;;;6.18;;
12222;SDS011;6174;49.058;8.524;2023-06-26T06:59:44;6.38;;;5.88;;
12222;SDS011;6174;49.058;8.524;2023-06-26T07:02:13;7.80;;;6.35;;
12222;SDS011;6174;49.058;8.524;2023-06-26T07:04:40;7.55;;;6.80;;
12222;SDS011;6174;49.058;8.524;2023-06-26T07:07:07;7.13;;;5.97;;
12222;SDS011;6174;49.058;8.524;2023-06-26T07:09:34;6.75;;;6.25;;
12222;SDS011;6174;49.058;8.524;2023-06-26T07:12:01;6.97;;;6.28;;
12222;SDS011;6174;49.058;8.524;2023-06-26T07:14:28;7.05;;;6.35;;
12222;SDS011;6174;49.058;8.524;2023-06-26T07:16:57;7.05;;;6.38;;
12222;SDS011;6174;49.058;8.524;2023-06-26T07:19:23;6.40;;;5.80;;
12222;SDS011;6174;49.058;8.524;2023-06-26T07:21:50;7.53;;;5.95;;
12222;SDS011;6174;49.058;8.524;2023-06-26T07:24:17;6.20;;;5.70;;
12222;SDS011;6174;49.058;8.524;2023-06-26T07:26:44;6.50;;;6.00;;
12222;SDS011;6174;49.058;8.524;2023-06-26T07:29:10;7.20;;;6.03;;
12222;SDS011;6174;49.058;8.524;2023-06-26T07:31:37;6.60;;;6.10;;
12222;SDS011;6174;49.058;8.524;2023-06-26T07:34:05;6.22;;;5.72;;
12222;SDS011;6174;49.058;8.524;2023-06-26T07:36:32;6.20;;;5.60;;
12222;SDS011;6174;49.058;8.524;2023-06-26T07:38:58;6.55;;;5.93;;
12222;SDS011;6174;49.058;8.524;2023-06-26T07:41:42;6.65;;;5.65;;
12222;SDS011;6174;49.058;8.524;2023-06-26T07:44:24;7.15;;;6.00;;
12222;SDS011;6174;49.058;8.524;2023-06-26T07:47:17;6.40;;;5.80;;
12222;SDS011;6174;49.058;8.524;2023-06-26T07:49:45;6.55;;;5.93;;
12222;SDS011;6174;49.058;8.524;2023-06-26T07:52:12;7.53;;;5.70;;
12222;SDS011;6174;49.058;8.524;2023-06-26T07:54:40;5.93;;;5.43;;
12222;SDS011;6174;49.058;8.524;2023-06-26T07:57:07;5.85;;;5.35;;
12222;SDS011;6174;49.058;8.524;2023-06-26T07:59:33;5.95;;;5.43;;
12222;SDS011;6174;49.058;8.524;2023-06-26T08:02:00;6.03;;;5.10;;
12222;SDS011;6174;49.058;8.524;2023-06-26T08:04:27;5.22;;;4.65;;
12222;SDS011;6174;49.058;8.524;2023-06-26T08:06:58;6.03;;;5.53;;
12222;SDS011;6174;49.058;8.524;2023-06-26T08:09:26;5.90;;;5.40;;
12222;SDS011;6174;49.058;8.524;2023-06-26T08:11:54;6.00;;;5.50;;
12222;SDS011;6174;49.058;8.524;2023-06-26T08:14:21;6.13;;;5.63;;
12222;SDS011;6174;49.058;8.524;2023-06-26T08:16:48;5.45;;;4.95;;
12222;SDS011;6174;49.058;8.524;2023-06-26T08:19:15;5.25;;;4.78;;
12222;SDS011;6174;49.058;8.524;2023-06-26T08:21:43;6.07;;;5.57;;
12222;SDS011;6174;49.058;8.524;2023-06-26T08:24:11;5.85;;;5.15;;
12222;SDS011;6174;49.058;8.524;2023-06-26T08:26:41;7.90;;;5.72;;
12222;SDS011;6174;49.058;8.524;2023-06-26T08:29:07;5.60;;;5.20;;
12222;SDS011;6174;49.058;8.524;2023-06-26T08:31:34;5.55;;;5.15;;
12222;SDS011;6174;49.058;8.524;2023-06-26T08:34:01;6.55;;;5.80;;
12222;SDS011;6174;49.058;8.524;2023-06-26T08:36:28;7.13;;;5.82;;
12222;SDS011;6174;49.058;8.524;2023-06-26T08:38:55;5.63;;;5.22;;
12222;SDS011;6174;49.058;8.524;2023-06-26T08:41:23;5.43;;;5.03;;
12222;SDS011;6174;49.058;8.524;2023-06-26T08:43:50;6.05;;;5.45;;
12222;SDS011;6174;49.058;8.524;2023-06-26T08:46:18;6.38;;;5.78;;
12222;SDS011;6174;49.058;8.524;2023-06-26T08:48:48;5.78;;;5.28;;
12222;SDS011;6174;49.058;8.524;2023-06-26T08:51:17;6.57;;;5.65;;
12222;SDS011;6174;49.058;8.524;2023-06-26T08:53:52;6.30;;;5.80;;
12222;SDS011;6174;49.058;8.524;2023-06-26T08:59:28;6.65;;;5.93;;
12222;SDS011;6174;49.058;8.524;2023-06-26T09:01:58;6.20;;;5.75;;
12222;SDS011;6174;49.058;8.524;2023-06-26T09:07:41;7.55;;;5.57;;
12222;SDS011;6174;49.058;8.524;2023-06-26T09:10:17;6.22;;;5.63;;
12222;SDS011;6174;49.058;8.524;2023-06-26T09:29:56;6.15;;;5.65;;
12222;SDS011;6174;49.058;8.524;2023-06-26T09:32:25;6.20;;;5.68;;
12222;SDS011;6174;49.058;8.524;2023-06-26T09:34:53;6.72;;;5.32;;
12222;SDS011;6174;49.058;8.524;2023-06-26T09:37:21;6.40;;;5.88;;
12222;SDS011;6174;49.058;8.524;2023-06-26T09:39:54;5.70;;;5.18;;
12222;SDS011;6174;49.058;8.524;2023-06-26T09:42:35;5.95;;;5.45;;
12222;SDS011;6174;49.058;8.524;2023-06-26T09:45:04;6.00;;;5.50;;
12222;SDS011;6174;49.058;8.524;2023-06-26T09:47:32;5.75;;;5.18;;
12222;SDS011;6174;49.058;8.524;2023-06-26T09:50:02;7.28;;;5.63;;
12222;SDS011;6174;49.058;8.524;2023-06-26T09:52:29;7.93;;;7.03;;
12222;SDS011;6174;49.058;8.524;2023-06-26T09:55:07;13.45;;;10.38;;
12222;SDS011;6174;49.058;8.524;2023-06-26T09:57:35;6.50;;;5.88;;
12222;SDS011;6174;49.058;8.524;2023-06-26T10:00:04;6.00;;;5.50;;
12222;SDS011;6174;49.058;8.524;2023-06-26T10:02:36;6.10;;;5.60;;
12222;SDS011;6174;49.058;8.524;2023-06-26T10:10:22;7.43;;;6.35;;
12222;SDS011;6174;49.058;8.524;2023-06-26T10:22:48;6.28;;;5.70;;
12222;SDS011;6174;49.058;8.524;2023-06-26T10:25:16;6.32;;;5.70;;
12222;SDS011;6174;49.058;8.524;2023-06-26T10:27:46;6.22;;;5.68;;
12222;SDS011;6174;49.058;8.524;2023-06-26T10:30:29;7.72;;;6.90;;
12222;SDS011;6174;49.058;8.524;2023-06-26T10:33:43;7.03;;;5.53;;
12222;SDS011;6174;49.058;8.524;2023-06-26T10:36:12;6.13;;;5.50;;
12222;SDS011;6174;49.058;8.524;2023-06-26T10:38:51;5.93;;;5.43;;
12222;SDS011;6174;49.058;8.524;2023-06-26T10:41:20;20.95;;;15.13;;
12222;SDS011;6174;49.058;8.524;2023-06-26T10:43:49;8.73;;;8.02;;
12222;SDS011;6174;49.058;8.524;2023-06-26T10:46:17;6.03;;;5.63;;
12222;SDS011;6174;49.058;8.524;2023-06-26T10:48:57;6.75;;;6.15;;
12222;SDS011;6174;49.058;8.524;2023-06-26T10:51:25;6.50;;;5.63;;
12222;SDS011;6174;49.058;8.524;2023-06-26T10:53:57;6.50;;;5.75;;
12222;SDS011;6174;49.058;8.524;2023-06-26T10:56:43;7.13;;;5.68;;
12222;SDS011;6174;49.058;8.524;2023-06-26T10:59:11;6.47;;;5.97;;
12222;SDS011;6174;49.058;8.524;2023-06-26T11:01:40;7.32;;;6.32;;
12222;SDS011;6174;49.058;8.524;2023-06-26T11:04:08;6.10;;;5.57;;
12222;SDS011;6174;49.058;8.524;2023-06-26T11:06:35;6.47;;;5.70;;
12222;SDS011;6174;49.058;8.524;2023-06-26T11:09:07;6.10;;;5.53;;
12222;SDS011;6174;49.058;8.524;2023-06-26T11:11:57;5.82;;;5.32;;
12222;SDS011;6174;49.058;8.524;2023-06-26T11:14:27;5.57;;;5.07;;
12222;SDS011;6174;49.058;8.524;2023-06-26T11:17:04;7.32;;;5.43;;
12222;SDS011;6174;49.058;8.524;2023-06-26T11:20:38;8.38;;;6.22;;
12222;SDS011;6174;49.058;8.524;2023-06-26T11:22:34;6.90;;;6.03;;
12222;SDS011;6174;49.058;8.524;2023-06-26T11:25:04;12.07;;;6.28;;
12222;SDS011;6174;49.058;8.524;2023-06-26T11:27:32;80.38;;;14.80;;
12222;SDS011;6174;49.058;8.524;2023-06-26T11:30:04;14.00;;;6.70;;
12222;SDS011;6174;49.058;8.524;2023-06-26T11:32:32;7.03;;;6.00;;
12222;SDS011;6174;49.058;8.524;2023-06-26T11:34:58;5.93;;;5.32;;
12222;SDS011;6174;49.058;8.524;2023-06-26T11:37:25;18.13;;;7.35;;
12222;SDS011;6174;49.058;8.524;2023-06-26T11:39:53;6.25;;;5.65;;
12222;SDS011;6174;49.058;8.524;2023-06-26T11:42:21;6.55;;;5.45;;
12222;SDS011;6174;49.058;8.524;2023-06-26T11:44:49;53.55;;;9.82;;
12222;SDS011;6174;49.058;8.524;2023-06-26T11:47:17;9.05;;;5.88;;
12222;SDS011;6174;49.058;8.524;2023-06-26T11:49:54;81.10;;;14.00;;
12222;SDS011;6174;49.058;8.524;2023-06-26T11:52:24;5.70;;;5.18;;
12222;SDS011;6174;49.058;8.524;2023-06-26T11:54:50;5.53;;;5.03;;
12222;SDS011;6174;49.058;8.524;2023-06-26T12:03:36;5.50;;;4.97;;
12222;SDS011;6174;49.058;8.524;2023-06-26T12:06:18;4.88;;;4.47;;
12222;SDS011;6174;49.058;8.524;2023-06-26T12:08:47;5.68;;;5.15;;
12222;SDS011;6174;49.058;8.524;2023-06-26T12:11:20;8.73;;;5.22;;
12222;SDS011;6174;49.058;8.524;2023-06-26T12:13:53;11.77;;;5.40;;
12222;SDS011;6174;49.058;8.524;2023-06-26T12:16:20;5.40;;;4.90;;
12222;SDS011;6174;49.058;8.524;2023-06-26T12:18:49;6.63;;;4.60;;
12222;SDS011;6174;49.058;8.524;2023-06-26T12:24:23;5.00;;;4.50;;
12222;SDS011;6174;49.058;8.524;2023-06-26T12:26:53;6.75;;;4.70;;
12222;SDS011;6174;49.058;8.524;2023-06-26T12:29:28;5.03;;;4.53;;
12222;SDS011;6174;49.058;8.524;2023-06-26T12:31:57;4.07;;;3.65;;
12222;SDS011;6174;49.058;8.524;2023-06-26T12:34:30;4.55;;;3.95;;
12222;SDS011;6174;49.058;8.524;2023-06-26T12:37:02;3.92;;;3.63;;
12222;SDS011;6174;49.058;8.524;2023-06-26T12:39:52;5.15;;;3.47;;
12222;SDS011;6174;49.058;8.524;2023-06-26T12:42:54;4.80;;;3.88;;
12222;SDS011;6174;49.058;8.524;2023-06-26T12:45:21;5.55;;;4.15;;
12222;SDS011;6174;49.058;8.524;2023-06-26T12:47:48;3.97;;;3.50;;
12222;SDS011;6174;49.058;8.524;2023-06-26T12:50:19;5.88;;;3.65;;
12222;SDS011;6174;49.058;8.524;2023-06-26T12:52:46;45.92;;;9.07;;
12222;SDS011;6174;49.058;8.524;2023-06-26T12:55:18;4.90;;;3.47;;
12222;SDS011;6174;49.058;8.524;2023-06-26T12:58:07;3.75;;;3.45;;
12222;SDS011;6174;49.058;8.524;2023-06-26T13:00:58;3.72;;;3.42;;
12222;SDS011;6174;49.058;8.524;2023-06-26T13:07:02;3.45;;;3.17;;
12222;SDS011;6174;49.058;8.524;2023-06-26T13:09:34;4.53;;;3.47;;
12222;SDS011;6174;49.058;8.524;2023-06-26T13:12:13;5.82;;;3.60;;
12222;SDS011;6174;49.058;8.524;2023-06-26T13:14:40;5.85;;;3.88;;
12222;SDS011;6174;49.058;8.524;2023-06-26T13:17:07;3.97;;;3.58;;
12222;SDS011;6174;49.058;8.524;2023-06-26T13:20:07;5.68;;;3.67;;
12222;SDS011;6174;49.058;8.524;2023-06-26T13:22:36;25.13;;;5.15;;
12222;SDS011;6174;49.058;8.524;2023-06-26T13:25:03;11.18;;;4.07;;
12222;SDS011;6174;49.058;8.524;2023-06-26T13:27:32;5.30;;;3.35;;
12222;SDS011;6174;49.058;8.524;2023-06-26T13:30:01;5.18;;;3.50;;
12222;SDS011;6174;49.058;8.524;2023-06-26T13:32:28;6.82;;;3.25;;
12222;SDS011;6174;49.058;8.524;2023-06-26T13:34:55;9.63;;;4.00;;
12222;SDS011;6174;49.058;8.524;2023-06-26T13:37:23;8.68;;;4.90;;
12222;SDS011;6174;49.058;8.524;2023-06-26T13:39:51;6.32;;;4.30;;
12222;SDS011;6174;49.058;8.524;2023-06-26T13:47:39;7.53;;;4.32;;
12222;SDS011;6174;49.058;8.524;2023-06-26T13:50:07;6.55;;;4.50;;
12222;SDS011;6174;49.058;8.524;2023-06-26T13:52:34;9.25;;;4.75;;
12222;SDS011;6174;49.058;8.524;2023-06-26T13:55:11;4.78;;;4.30;;
12222;SDS011;6174;49.058;8.524;2023-06-26T13:57:49;5.20;;;4.15;;
12222;SDS011;6174;49.058;8.524;2023-06-26T14:00:37;4.93;;;4.43;;
12222;SDS011;6174;49.058;8.524;2023-06-26T14:05:34;6.22;;;5.40;;
12222;SDS011;6174;49.058;8.524;2023-06-26T14:08:01;8.52;;;6.05;;
12222;SDS011;6174;49.058;8.524;2023-06-26T14:10:32;10.05;;;6.00;;
12222;SDS011;6174;49.058;8.524;2023-06-26T14:12:59;12.48;;;6.22;;
12222;SDS011;6174;49.058;8.524;2023-06-26T14:15:26;7.15;;;6.22;;
12222;SDS011;6174;49.058;8.524;2023-06-26T14:17:53;7.95;;;6.35;;
12222;SDS011;6174;49.058;8.524;2023-06-26T14:20:20;8.13;;;5.80;;
12222;SDS011;6174;49.058;8.524;2023-06-26T14:22:48;13.00;;;7.00;;
12222;SDS011;6174;49.058;8.524;2023-06-26T14:25:15;14.68;;;7.07;;
12222;SDS011;6174;49.058;8.524;2023-06-26T14:27:44;11.30;;;6.38;;
12222;SDS011;6174;49.058;8.524;2023-06-26T14:30:11;6.95;;;6.10;;
12222;SDS011;6174;49.058;8.524;2023-06-26T14:32:41;9.10;;;6.65;;
12222;SDS011;6174;49.058;8.524;2023-06-26T14:35:08;14.23;;;6.80;;
12222;SDS011;6174;49.058;8.524;2023-06-26T14:37:35;24.70;;;7.50;;
12222;SDS011;6174;49.058;8.524;2023-06-26T14:40:04;11.75;;;6.38;;
12222;SDS011;6174;49.058;8.524;2023-06-26T14:42:32;10.55;;;6.53;;
12222;SDS011;6174;49.058;8.524;2023-06-26T14:45:05;8.27;;;6.13;;
12222;SDS011;6174;49.058;8.524;2023-06-26T14:47:33;9.80;;;6.28;;
12222;SDS011;6174;49.058;8.524;2023-06-26T14:50:06;5.88;;;4.85;;
12222;SDS011;6174;49.058;8.524;2023-06-26T14:52:37;6.97;;;5.22;;
12222;SDS011;6174;49.058;8.524;2023-06-26T14:55:04;6.75;;;4.70;;
12222;SDS011;6174;49.058;8.524;2023-06-26T14:57:31;5.28;;;4.35;;
12222;SDS011;6174;49.058;8.524;2023-06-26T14:59:58;9.05;;;3.80;;
12222;SDS011;6174;49.058;8.524;2023-06-26T15:05:18;4.38;;;3.70;;
12222;SDS011;6174;49.058;8.524;2023-06-26T15:07:47;5.55;;;3.78;;
12222;SDS011;6174;49.058;8.524;2023-06-26T15:10:14;7.25;;;3.90;;
12222;SDS011;6174;49.058;8.524;2023-06-26T15:12:41;5.57;;;2.20;;
12222;SDS011;6174;49.058;8.524;2023-06-26T15:15:09;5.50;;;2.42;;
12222;SDS011;6174;49.058;8.524;2023-06-26T15:17:37;4.85;;;2.58;;
12222;SDS011;6174;49.058;8.524;2023-06-26T15:20:06;7.63;;;2.60;;
12222;SDS011;6174;49.058;8.524;2023-06-26T15:22:33;2.28;;;1.85;;
12222;SDS011;6174;49.058;8.524;2023-06-26T15:25:00;4.63;;;2.03;;
12222;SDS011;6174;49.058;8.524;2023-06-26T15:27:27;2.60;;;1.88;;
12222;SDS011;6174;49.058;8.524;2023-06-26T15:29:54;6.15;;;2.20;;
12222;SDS011;6174;49.058;8.524;2023-06-26T15:32:20;3.28;;;2.10;;
12222;SDS011;6174;49.058;8.524;2023-06-26T15:34:47;2.55;;;1.92;;
12222;SDS011;6174;49.058;8.524;2023-06-26T15:37:15;2.78;;;2.22;;
12222;SDS011;6174;49.058;8.524;2023-06-26T15:39:42;2.10;;;1.90;;
12222;SDS011;6174;49.058;8.524;2023-06-26T15:42:09;3.63;;;2.25;;
12222;SDS011;6174;49.058;8.524;2023-06-26T15:44:41;2.15;;;1.95;;
12222;SDS011;6174;49.058;8.524;2023-06-26T15:47:08;2.63;;;1.83;;
12222;SDS011;6174;49.058;8.524;2023-06-26T15:49:35;2.25;;;1.90;;
12222;SDS011;6174;49.058;8.524;2023-06-26T15:52:02;2.63;;;1.80;;
12222;SDS011;6174;49.058;8.524;2023-06-26T15:54:38;5.13;;;2.35;;
12222;SDS011;6174;49.058;8.524;2023-06-26T15:57:05;4.80;;;2.00;;
12222;SDS011;6174;49.058;8.524;2023-06-26T15:59:32;2.03;;;1.70;;
12222;SDS011;6174;49.058;8.524;2023-06-26T16:01:59;3.63;;;1.90;;
12222;SDS011;6174;49.058;8.524;2023-06-26T16:04:26;3.15;;;2.08;;
12222;SDS011;6174;49.058;8.524;2023-06-26T16:06:55;2.05;;;1.85;;
12222;SDS011;6174;49.058;8.524;2023-06-26T16:09:25;2.83;;;1.98;;
12222;SDS011;6174;49.058;8.524;2023-06-26T16:12:17;3.97;;;2.05;;
12222;SDS011;6174;49.058;8.524;2023-06-26T16:14:50;3.95;;;1.92;;
12222;SDS011;6174;49.058;8.524;2023-06-26T16:17:20;3.65;;;2.15;;
12222;SDS011;6174;49.058;8.524;2023-06-26T16:19:48;3.33;;;1.90;;
12222;SDS011;6174;49.058;8.524;2023-06-26T16:22:14;2.88;;;2.13;;
12222;SDS011;6174;49.058;8.524;2023-06-26T16:24:41;2.72;;;2.00;;
12222;SDS011;6174;49.058;8.524;2023-06-26T16:27:10;5.18;;;2.13;;
12222;SDS011;6174;49.058;8.524;2023-06-26T16:29:39;4.85;;;1.92;;
12222;SDS011;6174;49.058;8.524;2023-06-26T16:32:07;2.17;;;1.92;;
12222;SDS011;6174;49.058;8.524;2023-06-26T16:34:34;7.78;;;2.30;;
12222;SDS011;6174;49.058;8.524;2023-06-26T16:37:04;3.33;;;2.05;;
12222;SDS011;6174;49.058;8.524;2023-06-26T16:39:32;3.53;;;1.90;;
12222;SDS011;6174;49.058;8.524;2023-06-26T16:41:59;2.72;;;1.90;;
12222;SDS011;6174;49.058;8.524;2023-06-26T16:44:27;4.28;;;1.98;;
12222;SDS011;6174;49.058;8.524;2023-06-26T16:46:56;4.55;;;1.90;;
12222;SDS011;6174;49.058;8.524;2023-06-26T16:49:23;4.15;;;1.80;;
12222;SDS011;6174;49.058;8.524;2023-06-26T16:51:50;3.88;;;1.83;;
12222;SDS011;6174;49.058;8.524;2023-06-26T16:54:18;4.75;;;1.92;;
12222;SDS011;6174;49.058;8.524;2023-06-26T16:56:45;2.25;;;1.70;;
12222;SDS011;6174;49.058;8.524;2023-06-26T16:59:13;4.38;;;1.92;;
12222;SDS011;6174;49.058;8.524;2023-06-26T17:01:41;2.28;;;1.50;;
12222;SDS011;6174;49.058;8.524;2023-06-26T17:04:17;4.03;;;2.00;;
12222;SDS011;6174;49.058;8.524;2023-06-26T17:06:47;4.63;;;2.03;;
12222;SDS011;6174;49.058;8.524;2023-06-26T17:09:19;2.90;;;1.80;;
12222;SDS011;6174;49.058;8.524;2023-06-26T17:12:26;2.50;;;1.55;;
12222;SDS011;6174;49.058;8.524;2023-06-26T17:15:13;2.45;;;1.85;;
12222;SDS011;6174;49.058;8.524;2023-06-26T17:17:56;2.55;;;1.67;;
12222;SDS011;6174;49.058;8.524;2023-06-26T17:20:23;3.75;;;1.60;;
12222;SDS011;6174;49.058;8.524;2023-06-26T17:22:57;2.13;;;1.70;;
12222;SDS011;6174;49.058;8.524;2023-06-26T17:25:29;3.13;;;1.75;;
12222;SDS011;6174;49.058;8.524;2023-06-26T17:28:02;5.18;;;2.05;;
12222;SDS011;6174;49.058;8.524;2023-06-26T17:30:38;3.25;;;1.70;;
12222;SDS011;6174;49.058;8.524;2023-06-26T17:33:08;4.75;;;1.80;;
12222;SDS011;6174;49.058;8.524;2023-06-26T17:35:38;2.78;;;1.70;;
12222;SDS011;6174;49.058;8.524;2023-06-26T17:38:10;3.08;;;1.85;;
12222;SDS011;6174;49.058;8.524;2023-06-26T17:40:40;2.95;;;2.17;;
12222;SDS011;6174;49.058;8.524;2023-06-26T17:43:07;2.17;;;1.88;;
12222;SDS011;6174;49.058;8.524;2023-06-26T17:45:33;4.10;;;1.80;;
12222;SDS011;6174;49.058;8.524;2023-06-26T17:48:02;2.00;;;1.73;;
12222;SDS011;6174;49.058;8.524;2023-06-26T17:50:31;2.85;;;2.10;;
12222;SDS011;6174;49.058;8.524;2023-06-26T17:52:58;4.50;;;1.80;;
12222;SDS011;6174;49.058;8.524;2023-06-26T17:55:24;1.90;;;1.58;;
12222;SDS011;6174;49.058;8.524;2023-06-26T17:57:51;2.67;;;1.73;;
12222;SDS011;6174;49.058;8.524;2023-06-26T18:00:19;3.20;;;1.80;;
12222;SDS011;6174;49.058;8.524;2023-06-26T18:02:46;4.32;;;1.77;;
12222;SDS011;6174;49.058;8.524;2023-06-26T18:05:15;3.08;;;2.00;;
12222;SDS011;6174;49.058;8.524;2023-06-26T18:07:43;1.80;;;1.60;;
12222;SDS011;6174;49.058;8.524;2023-06-26T18:10:10;3.30;;;1.92;;
12222;SDS011;6174;49.058;8.524;2023-06-26T18:12:37;2.83;;;1.77;;
12222;SDS011;6174;49.058;8.524;2023-06-26T18:15:07;3.00;;;1.90;;
12222;SDS011;6174;49.058;8.524;2023-06-26T18:17:34;3.83;;;1.67;;
12222;SDS011;6174;49.058;8.524;2023-06-26T18:20:10;2.67;;;1.73;;
12222;SDS011;6174;49.058;8.524;2023-06-26T18:22:37;4.32;;;2.00;;
12222;SDS011;6174;49.058;8.524;2023-06-26T18:25:06;3.05;;;1.55;;
12222;SDS011;6174;49.058;8.524;2023-06-26T18:27:33;2.63;;;1.77;;
12222;SDS011;6174;49.058;8.524;2023-06-26T18:30:00;3.05;;;1.73;;
12222;SDS011;6174;49.058;8.524;2023-06-26T18:32:28;4.90;;;2.00;;
12222;SDS011;6174;49.058;8.524;2023-06-26T18:34:55;3.20;;;1.83;;
12222;SDS011;6174;49.058;8.524;2023-06-26T18:37:22;3.72;;;1.58;;
12222;SDS011;6174;49.058;8.524;2023-06-26T18:39:49;3.15;;;1.70;;
12222;SDS011;6174;49.058;8.524;2023-06-26T18:42:17;2.80;;;1.67;;
12222;SDS011;6174;49.058;8.524;2023-06-26T18:44:44;3.25;;;1.70;;
12222;SDS011;6174;49.058;8.524;2023-06-26T18:47:11;3.05;;;1.90;;
12222;SDS011;6174;49.058;8.524;2023-06-26T18:49:38;3.72;;;1.77;;
12222;SDS011;6174;49.058;8.524;2023-06-26T18:52:07;2.05;;;1.70;;
12222;SDS011;6174;49.058;8.524;2023-06-26T18:54:34;2.38;;;1.80;;
12222;SDS011;6174;49.058;8.524;2023-06-26T18:57:00;3.17;;;1.70;;
12222;SDS011;6174;49.058;8.524;2023-06-26T18:59:29;3.10;;;1.80;;
12222;SDS011;6174;49.058;8.524;2023-06-26T19:01:55;2.00;;;1.80;;
12222;SDS011;6174;49.058;8.524;2023-06-26T19:04:22;6.13;;;1.60;;
12222;SDS011;6174;49.058;8.524;2023-06-26T19:06:50;4.15;;;1.90;;
12222;SDS011;6174;49.058;8.524;2023-06-26T19:09:18;2.08;;;1.55;;
12222;SDS011;6174;49.058;8.524;2023-06-26T19:11:45;4.55;;;1.98;;
12222;SDS011;6174;49.058;8.524;2023-06-26T19:14:12;2.13;;;1.77;;
12222;SDS011;6174;49.058;8.524;2023-06-26T19:16:40;4.50;;;1.83;;
12222;SDS011;6174;49.058;8.524;2023-06-26T19:19:07;4.65;;;1.90;;
12222;SDS011;6174;49.058;8.524;2023-06-26T19:21:33;2.05;;;1.50;;
12222;SDS011;6174;49.058;8.524;2023-06-26T19:24:00;3.67;;;1.88;;
12222;SDS011;6174;49.058;8.524;2023-06-26T19:26:27;2.83;;;2.00;;
12222;SDS011;6174;49.058;8.524;2023-06-26T19:28:54;3.58;;;1.90;;
12222;SDS011;6174;49.058;8.524;2023-06-26T19:31:21;3.15;;;1.98;;
12222;SDS011;6174;49.058;8.524;2023-06-26T19:33:49;3.22;;;1.75;;
12222;SDS011;6174;49.058;8.524;2023-06-26T19:36:16;1.85;;;1.70;;
12222;SDS011;6174;49.058;8.524;2023-06-26T19:38:42;2.92;;;1.85;;
12222;SDS011;6174;49.058;8.524;2023-06-26T19:41:09;3.67;;;1.70;;
12222;SDS011;6174;49.058;8.524;2023-06-26T19:43:36;2.85;;;1.70;;
12222;SDS011;6174;49.058;8.524;2023-06-26T19:46:03;3.35;;;2.00;;
12222;SDS011;6174;49.058;8.524;2023-06-26T19:48:29;4.90;;;1.98;;
12222;SDS011;6174;49.058;8.524;2023-06-26T19:50:57;2.45;;;1.60;;
12222;SDS011;6174;49.058;8.524;2023-06-26T19:53:24;3.70;;;1.90;;
12222;SDS011;6174;49.058;8.524;2023-06-26T19:55:51;2.72;;;1.80;;
12222;SDS011;6174;49.058;8.524;2023-06-26T19:58:18;3.38;;;1.95;;
12222;SDS011;6174;49.058;8.524;2023-06-26T20:00:45;4.15;;;2.33;;
12222;SDS011;6174;49.058;8.524;2023-06-26T20:03:12;1.70;;;1.60;;
12222;SDS011;6174;49.058;8.524;2023-06-26T20:05:38;3.58;;;1.73;;
12222;SDS011;6174;49.058;8.524;2023-06-26T20:08:06;4.78;;;2.10;;
12222;SDS011;6174;49.058;8.524;2023-06-26T20:10:33;1.85;;;1.63;;
12222;SDS011;6174;49.058;8.524;2023-06-26T20:13:00;4.97;;;2.10;;
12222;SDS011;6174;49.058;8.524;2023-06-26T20:15:27;4.35;;;1.92;;
12222;SDS011;6174;49.058;8.524;2023-06-26T20:17:54;3.85;;;1.98;;
12222;SDS011;6174;49.058;8.524;2023-06-26T20:20:21;3.83;;;2.20;;
12222;SDS011;6174;49.058;8.524;2023-06-26T20:22:47;2.15;;;1.88;;
12222;SDS011;6174;49.058;8.524;2023-06-26T20:25:15;4.32;;;1.90;;
12222;SDS011;6174;49.058;8.524;2023-06-26T20:27:42;2.95;;;1.55;;
12222;SDS011;6174;49.058;8.524;2023-06-26T20:30:09;3.38;;;1.92;;
12222;SDS011;6174;49.058;8.524;2023-06-26T20:32:36;4.70;;;1.77;;
12222;SDS011;6174;49.058;8.524;2023-06-26T20:35:03;2.65;;;1.75;;
12222;SDS011;6174;49.058;8.524;2023-06-26T20:37:31;3.80;;;1.80;;
12222;SDS011;6174;49.058;8.524;2023-06-26T20:39:57;3.50;;;2.03;;
12222;SDS011;6174;49.058;8.524;2023-06-26T20:42:27;5.25;;;2.10;;
12222;SDS011;6174;49.058;8.524;2023-06-26T20:44:54;4.47;;;2.08;;
12222;SDS011;6174;49.058;8.524;2023-06-26T20:47:22;5.38;;;2.35;;
12222;SDS011;6174;49.058;8.524;2023-06-26T20:49:56;6.25;;;2.15;;
12222;SDS011;6174;49.058;8.524;2023-06-26T20:52:23;3.22;;;1.75;;
12222;SDS011;6174;49.058;8.524;2023-06-26T20:54:53;3.55;;;1.98;;
12222;SDS011;6174;49.058;8.524;2023-06-26T20:57:20;5.00;;;2.25;;
12222;SDS011;6174;49.058;8.524;2023-06-26T20:59:48;6.05;;;2.08;;
12222;SDS011;6174;49.058;8.524;2023-06-26T21:02:15;3.75;;;1.75;;
12222;SDS011;6174;49.058;8.524;2023-06-26T21:04:42;3.80;;;1.90;;
12222;SDS011;6174;49.058;8.524;2023-06-26T21:07:09;3.90;;;1.80;;
12222;SDS011;6174;49.058;8.524;2023-06-26T21:09:36;2.30;;;1.57;;
12222;SDS011;6174;49.058;8.524;2023-06-26T21:12:03;2.88;;;2.10;;
12222;SDS011;6174;49.058;8.524;2023-06-26T21:14:30;3.73;;;2.00;;
12222;SDS011;6174;49.058;8.524;2023-06-26T21:16:58;5.07;;;2.00;;